createdAt,value
2023-07-16T00:00:21.046Z,100849.78
2023-07-16T00:02:48.127Z,100840.00
2023-07-16T00:05:14.763Z,100851.72
2023-07-16T00:07:42.434Z,100854.06
2023-07-16T00:10:09.363Z,100852.88
2023-07-16T00:12:35.908Z,100844.66
2023-07-16T00:15:02.611Z,100852.50
2023-07-16T00:17:29.234Z,100851.34
2023-07-16T00:19:55.871Z,100845.50
2023-07-16T00:22:22.539Z,100846.25
2023-07-16T00:24:49.096Z,100843.16
2023-07-16T00:27:16.374Z,100843.16
2023-07-16T00:29:42.965Z,100847.06
2023-07-16T00:32:09.428Z,100847.84
2023-07-16T00:34:35.926Z,100852.56
2023-07-16T00:37:04.247Z,100857.25
2023-07-16T00:39:31.102Z,100853.38
2023-07-16T00:41:58.084Z,100847.13
2023-07-16T00:44:24.810Z,100855.75
2023-07-16T00:46:52.278Z,100865.91
2023-07-16T00:49:18.870Z,100865.53
2023-07-16T00:51:46.070Z,100864.38
2023-07-16T00:54:12.572Z,100872.59
2023-07-16T00:56:39.560Z,100876.88
2023-07-16T00:59:06.156Z,100868.31
2023-07-16T01:01:32.795Z,100871.44
2023-07-16T01:03:59.443Z,100872.97
2023-07-16T01:06:36.979Z,100878.88
2023-07-16T01:09:03.879Z,100868.31
2023-07-16T01:11:31.594Z,100879.66
2023-07-16T01:13:58.792Z,100868.72
2023-07-16T01:16:26.578Z,100865.97
2023-07-16T01:18:53.295Z,100869.09
2023-07-16T01:21:22.786Z,100858.56
2023-07-16T01:24:10.554Z,100858.16
2023-07-16T01:26:48.522Z,100855.44
2023-07-16T01:29:35.351Z,100868.31
2023-07-16T01:32:05.068Z,100865.97
2023-07-16T01:34:34.841Z,100868.72
2023-07-16T01:37:05.204Z,100860.13
2023-07-16T01:39:33.899Z,100849.59
2023-07-16T01:42:00.656Z,100866.00
2023-07-16T01:44:27.315Z,100867.53
2023-07-16T01:47:25.667Z,100866.38
2023-07-16T01:49:52.245Z,100865.56
2023-07-16T01:52:18.747Z,100868.31
2023-07-16T01:54:45.263Z,100861.66
2023-07-16T01:57:12.008Z,100872.22
2023-07-16T01:59:38.530Z,100869.09
2023-07-16T02:02:05.551Z,100869.88
2023-07-16T02:04:32.039Z,100867.91
2023-07-16T02:06:58.493Z,100868.72
2023-07-16T02:09:26.382Z,100863.63
2023-07-16T02:11:53.232Z,100865.56
2023-07-16T02:14:19.934Z,100870.25
2023-07-16T02:16:46.486Z,100863.63
2023-07-16T02:19:13.014Z,100863.63
2023-07-16T02:21:39.530Z,100869.50
2023-07-16T02:24:06.380Z,100862.06
2023-07-16T02:26:32.876Z,100868.31
2023-07-16T02:29:00.637Z,100864.44
2023-07-16T02:31:27.525Z,100865.97
2023-07-16T02:33:54.259Z,100871.44
2023-07-16T02:36:20.918Z,100868.34
2023-07-16T02:38:47.514Z,100862.09
2023-07-16T02:41:14.230Z,100869.91
2023-07-16T02:43:40.913Z,100865.22
2023-07-16T02:46:07.631Z,100860.91
2023-07-16T02:48:34.109Z,100860.53
2023-07-16T02:51:00.631Z,100865.59
2023-07-16T02:53:27.085Z,100868.31
2023-07-16T02:55:53.612Z,100869.13
2023-07-16T02:58:20.106Z,100869.50
2023-07-16T03:00:46.725Z,100871.06
2023-07-16T03:03:13.410Z,100871.84
2023-07-16T03:05:40.059Z,100879.28
2023-07-16T03:08:06.743Z,100882.00
2023-07-16T03:10:33.410Z,100884.75
2023-07-16T03:12:59.984Z,100882.00
2023-07-16T03:15:26.689Z,100874.22
2023-07-16T03:17:53.229Z,100883.19
2023-07-16T03:20:20.075Z,100876.16
2023-07-16T03:22:46.777Z,100878.50
2023-07-16T03:25:13.361Z,100879.69
2023-07-16T03:27:41.056Z,100879.69
2023-07-16T03:30:08.239Z,100874.22
2023-07-16T03:32:50.246Z,100874.59
2023-07-16T03:35:18.380Z,100880.06
2023-07-16T03:37:45.115Z,100884.75
2023-07-16T03:40:16.461Z,100886.31
2023-07-16T03:42:43.832Z,100891.00
2023-07-16T03:45:12.075Z,100897.22
2023-07-16T03:47:39.062Z,100900.34
2023-07-16T03:50:06.273Z,100911.66
2023-07-16T03:52:32.893Z,100910.91
2023-07-16T03:54:59.657Z,100905.03
2023-07-16T03:57:26.143Z,100896.47
2023-07-16T03:59:52.759Z,100912.47
2023-07-16T04:02:19.386Z,100921.44
2023-07-16T04:04:46.122Z,100924.56
2023-07-16T04:07:12.586Z,100926.50
2023-07-16T04:09:39.926Z,100928.84
2023-07-16T04:12:07.853Z,100927.66
2023-07-16T04:14:34.470Z,100928.09
2023-07-16T04:17:01.089Z,100930.44
2023-07-16T04:19:27.635Z,100929.25
2023-07-16T04:21:54.256Z,100927.28
2023-07-16T04:24:21.067Z,100931.97
2023-07-16T04:26:47.768Z,100928.84
2023-07-16T04:29:14.386Z,100939.41
2023-07-16T04:31:40.926Z,100937.06
2023-07-16T04:34:07.715Z,100949.16
2023-07-16T04:36:34.260Z,100949.56
2023-07-16T04:39:00.759Z,100946.44
2023-07-16T04:41:27.364Z,100958.91
2023-07-16T04:43:53.990Z,100957.38
2023-07-16T04:46:20.660Z,100955.00
2023-07-16T04:48:47.158Z,100962.81
2023-07-16T04:51:14.095Z,100962.44
2023-07-16T04:53:40.595Z,100964.44
2023-07-16T04:56:16.117Z,100964.41
2023-07-16T04:58:43.430Z,100965.97
2023-07-16T05:01:10.961Z,100969.88
2023-07-16T05:03:38.187Z,100966.75
2023-07-16T05:06:05.283Z,100968.69
2023-07-16T05:08:31.903Z,100969.06
2023-07-16T05:10:58.457Z,100966.31
2023-07-16T05:13:25.047Z,100972.16
2023-07-16T05:15:51.538Z,100968.63
2023-07-16T05:18:18.132Z,100970.94
2023-07-16T05:20:49.044Z,100964.69
2023-07-16T05:23:15.955Z,100968.16
2023-07-16T05:25:52.072Z,100975.19
2023-07-16T05:28:20.039Z,100974.72
2023-07-16T05:30:46.834Z,100976.19
2023-07-16T05:33:13.542Z,100980.75
2023-07-16T05:35:40.870Z,100978.06
2023-07-16T05:38:07.505Z,100976.13
2023-07-16T05:40:34.288Z,100987.47
2023-07-16T05:43:00.941Z,101000.69
2023-07-16T05:45:27.443Z,100988.88
2023-07-16T05:47:54.213Z,100997.69
2023-07-16T05:50:20.820Z,101001.59
2023-07-16T05:52:49.433Z,100999.63
2023-07-16T05:55:16.311Z,101004.16
2023-07-16T05:57:43.113Z,101006.81
2023-07-16T06:00:10.334Z,101010.81
2023-07-16T06:02:37.091Z,101020.31
2023-07-16T06:05:03.850Z,101006.34
2023-07-16T06:07:30.368Z,101010.38
2023-07-16T06:09:56.759Z,101001.06
2023-07-16T06:12:23.577Z,101020.16
2023-07-16T06:14:50.104Z,101014.00
2023-07-16T06:17:16.741Z,101015.31
2023-07-16T06:19:44.072Z,101007.09
2023-07-16T06:22:10.596Z,101012.22
2023-07-16T06:24:37.104Z,101025.75
2023-07-16T06:27:04.103Z,101010.63
2023-07-16T06:29:30.541Z,101015.59
2023-07-16T06:31:58.554Z,101026.34
2023-07-16T06:34:26.031Z,101026.09
2023-07-16T06:36:52.479Z,101020.44
2023-07-16T06:39:19.184Z,101025.34
2023-07-16T06:41:45.747Z,101022.03
2023-07-16T06:44:12.461Z,101031.94
2023-07-16T06:46:38.976Z,101027.66
2023-07-16T06:49:07.165Z,101023.97
2023-07-16T06:51:34.498Z,101018.59
2023-07-16T06:54:01.218Z,101036.81
2023-07-16T06:56:27.964Z,101033.78
2023-07-16T06:58:54.648Z,101040.22
2023-07-16T07:01:21.211Z,101037.75
2023-07-16T07:03:47.912Z,101041.72
2023-07-16T07:06:14.625Z,101042.94
2023-07-16T07:08:41.394Z,101054.84
2023-07-16T07:11:07.863Z,101042.94
2023-07-16T07:13:34.309Z,101051.84
2023-07-16T07:16:00.883Z,101064.97
2023-07-16T07:18:27.531Z,101070.75
2023-07-16T07:20:54.222Z,101070.53
2023-07-16T07:23:20.935Z,101088.44
2023-07-16T07:25:52.274Z,101088.22
2023-07-16T07:28:19.931Z,101056.34
2023-07-16T07:30:46.969Z,101079.34
2023-07-16T07:33:13.732Z,101082.44
2023-07-16T07:35:40.389Z,101088.91
2023-07-16T07:38:07.014Z,101079.25
2023-07-16T07:40:33.804Z,101086.16
2023-07-16T07:43:01.037Z,101086.19
2023-07-16T07:45:27.719Z,101087.63
2023-07-16T07:47:54.325Z,101098.91
2023-07-16T07:50:21.101Z,101095.50
2023-07-16T07:52:47.676Z,101102.91
2023-07-16T07:55:14.363Z,101102.91
2023-07-16T07:57:41.013Z,101118.69
2023-07-16T08:00:11.934Z,101112.28
2023-07-16T08:02:39.487Z,101110.41
2023-07-16T08:05:06.894Z,101114.00
2023-07-16T08:07:33.530Z,101116.81
2023-07-16T08:10:00.066Z,101118.19
2023-07-16T08:12:26.593Z,101106.09
2023-07-16T08:14:53.036Z,101118.97
2023-07-16T08:17:22.113Z,101116.88
2023-07-16T08:19:50.467Z,101120.94
2023-07-16T08:22:17.144Z,101137.81
2023-07-16T08:24:44.059Z,101148.25
2023-07-16T08:27:10.916Z,101137.06
2023-07-16T08:29:37.932Z,101144.16
2023-07-16T08:32:04.876Z,101126.66
2023-07-16T08:34:31.383Z,101121.91
2023-07-16T08:36:58.066Z,101132.31
2023-07-16T08:39:26.327Z,101153.66
2023-07-16T08:41:54.293Z,101139.28
2023-07-16T08:44:21.583Z,101157.31
2023-07-16T08:46:48.572Z,101154.41
2023-07-16T08:49:19.412Z,101156.13
2023-07-16T08:51:51.170Z,101161.44
2023-07-16T08:54:18.484Z,101157.84
2023-07-16T08:56:45.572Z,101158.97
2023-07-16T08:59:12.130Z,101160.00
2023-07-16T09:01:39.147Z,101174.59
2023-07-16T09:04:05.713Z,101169.50
2023-07-16T09:06:32.360Z,101170.81
2023-07-16T09:08:59.401Z,101167.34
2023-07-16T09:11:26.169Z,101173.47
2023-07-16T09:13:52.615Z,101172.69
2023-07-16T09:16:19.882Z,101171.09
2023-07-16T09:18:46.394Z,101188.84
2023-07-16T09:21:13.165Z,101179.00
2023-07-16T09:23:39.769Z,101192.50
2023-07-16T09:26:06.406Z,101195.06
2023-07-16T09:28:33.776Z,101184.03
2023-07-16T09:31:07.732Z,101189.75
2023-07-16T09:33:35.160Z,101202.88
2023-07-16T09:36:04.101Z,101191.66
2023-07-16T09:38:31.303Z,101187.56
2023-07-16T09:40:58.067Z,101194.66
2023-07-16T09:43:24.972Z,101199.25
2023-07-16T09:45:51.817Z,101202.44
2023-07-16T09:48:18.500Z,101197.50
2023-07-16T09:50:55.542Z,101198.19
2023-07-16T09:53:23.590Z,101197.81
2023-07-16T09:55:54.544Z,101205.50
2023-07-16T09:58:22.001Z,101215.97
2023-07-16T10:00:51.700Z,101210.84
2023-07-16T10:03:18.868Z,101219.63
2023-07-16T10:05:46.906Z,101218.25
2023-07-16T10:08:18.525Z,101216.16
2023-07-16T10:10:58.178Z,101207.09
2023-07-16T10:13:25.502Z,101224.03
2023-07-16T10:15:53.727Z,101229.06
2023-07-16T10:18:34.923Z,101223.00
2023-07-16T10:21:09.942Z,101225.38
2023-07-16T10:23:44.294Z,101219.28
2023-07-16T10:26:18.340Z,101220.03
2023-07-16T10:28:46.609Z,101229.41
2023-07-16T10:31:23.249Z,101243.06
2023-07-16T10:33:59.421Z,101237.09
2023-07-16T10:36:25.932Z,101254.13
2023-07-16T10:38:54.621Z,101258.88
2023-07-16T10:41:24.481Z,101236.13
2023-07-16T10:43:53.127Z,101257.97
2023-07-16T10:46:22.469Z,101261.00
2023-07-16T10:48:49.247Z,101260.31
2023-07-16T10:51:17.066Z,101255.97
2023-07-16T10:53:44.789Z,101265.31
2023-07-16T10:56:11.477Z,101257.25
2023-07-16T10:58:39.143Z,101269.56
2023-07-16T11:01:05.906Z,101273.09
2023-07-16T11:03:32.697Z,101278.09
2023-07-16T11:05:59.225Z,101279.78
2023-07-16T11:08:26.433Z,101273.22
2023-07-16T11:10:57.882Z,101282.91
2023-07-16T11:13:32.822Z,101285.34
2023-07-16T11:16:09.834Z,101267.41
2023-07-16T11:18:36.934Z,101287.69
2023-07-16T11:21:04.878Z,101274.06
2023-07-16T11:23:35.996Z,101293.06
2023-07-16T11:26:05.969Z,101286.09
2023-07-16T11:28:43.194Z,101283.09
2023-07-16T11:31:17.460Z,101291.63
2023-07-16T11:33:47.414Z,101301.81
2023-07-16T11:36:15.235Z,101310.59
2023-07-16T11:38:42.506Z,101296.47
2023-07-16T11:41:09.159Z,101301.16
2023-07-16T11:43:37.205Z,101313.84
2023-07-16T11:46:17.179Z,101310.78
2023-07-16T11:48:44.589Z,101310.06
2023-07-16T11:51:11.201Z,101305.63
2023-07-16T11:53:39.661Z,101309.41
2023-07-16T11:56:06.749Z,101317.16
2023-07-16T11:58:33.386Z,101322.88
2023-07-16T12:00:59.892Z,101317.63
2023-07-16T12:03:26.523Z,101318.63
2023-07-16T12:05:54.350Z,101321.91
2023-07-16T12:08:21.455Z,101324.25
2023-07-16T12:10:48.096Z,101324.00
2023-07-16T12:13:14.800Z,101308.19
2023-07-16T12:15:41.517Z,101312.66
2023-07-16T12:18:08.386Z,101304.63
2023-07-16T12:20:37.385Z,101328.03
2023-07-16T12:23:04.401Z,101315.31
2023-07-16T12:25:31.521Z,101319.59
2023-07-16T12:27:59.235Z,101335.28
2023-07-16T12:30:26.091Z,101326.25
2023-07-16T12:32:52.611Z,101328.53
2023-07-16T12:35:19.362Z,101331.66
2023-07-16T12:37:46.091Z,101318.97
2023-07-16T12:40:12.969Z,101340.94
2023-07-16T12:42:39.586Z,101322.53
2023-07-16T12:45:06.693Z,101341.97
2023-07-16T12:47:33.332Z,101326.31
2023-07-16T12:49:59.862Z,101327.41
2023-07-16T12:52:26.513Z,101337.41
2023-07-16T12:54:54.207Z,101341.19
2023-07-16T12:57:22.365Z,101333.47
2023-07-16T12:59:49.015Z,101346.00
2023-07-16T13:02:16.010Z,101348.44
2023-07-16T13:04:42.775Z,101340.44
2023-07-16T13:07:09.665Z,101343.16
2023-07-16T13:09:36.470Z,101336.22
2023-07-16T13:12:04.276Z,101334.31
2023-07-16T13:14:30.824Z,101343.72
2023-07-16T13:16:57.294Z,101339.09
2023-07-16T13:19:23.910Z,101342.88
2023-07-16T13:21:50.494Z,101337.81
2023-07-16T13:24:17.168Z,101345.00
2023-07-16T13:26:44.946Z,101357.16
2023-07-16T13:29:13.369Z,101358.94
2023-07-16T13:31:39.894Z,101344.78
2023-07-16T13:34:06.673Z,101348.53
2023-07-16T13:36:33.371Z,101365.69
2023-07-16T13:39:00.624Z,101360.59
2023-07-16T13:41:28.324Z,101364.28
2023-07-16T13:43:56.295Z,101353.38
2023-07-16T13:46:22.856Z,101355.94
2023-07-16T13:51:22.881Z,101356.16
2023-07-16T13:53:49.347Z,101353.63
2023-07-16T13:56:16.320Z,101353.44
2023-07-16T13:58:43.029Z,101345.44
2023-07-16T14:01:09.576Z,101348.41
2023-07-16T14:03:36.387Z,101347.84
2023-07-16T14:06:03.031Z,101341.75
2023-07-16T14:08:29.579Z,101346.38
2023-07-16T14:10:56.103Z,101352.69
2023-07-16T14:13:22.643Z,101352.59
2023-07-16T14:15:49.267Z,101363.00
2023-07-16T14:18:15.895Z,101361.16
2023-07-16T14:20:42.430Z,101365.50
2023-07-16T14:23:09.137Z,101373.69
2023-07-16T14:25:35.997Z,101372.75
2023-07-16T14:28:02.434Z,101372.13
2023-07-16T14:30:29.081Z,101377.00
2023-07-16T14:32:55.614Z,101380.56
2023-07-16T14:35:35.681Z,101368.16
2023-07-16T14:38:04.144Z,101371.72
2023-07-16T14:40:30.788Z,101376.31
2023-07-16T14:42:57.334Z,101379.00
2023-07-16T14:45:24.616Z,101380.03
2023-07-16T14:47:51.223Z,101380.13
2023-07-16T14:50:17.898Z,101372.28
2023-07-16T14:52:44.382Z,101364.41
2023-07-16T14:55:10.903Z,101385.63
2023-07-16T14:57:38.415Z,101381.34
2023-07-16T15:00:07.987Z,101386.53
2023-07-16T15:02:34.936Z,101377.25
2023-07-16T15:05:01.913Z,101382.13
2023-07-16T15:07:28.359Z,101379.78
2023-07-16T15:09:54.934Z,101370.53
2023-07-16T15:12:21.393Z,101369.09
2023-07-16T15:14:48.042Z,101382.66
2023-07-16T15:17:15.133Z,101385.53
2023-07-16T15:19:41.793Z,101378.69
2023-07-16T15:22:09.814Z,101372.38
2023-07-16T15:24:37.923Z,101377.13
2023-07-16T15:27:05.243Z,101373.94
2023-07-16T15:29:32.281Z,101390.63
2023-07-16T15:32:01.462Z,101385.00
2023-07-16T15:34:29.476Z,101384.56
2023-07-16T15:36:56.021Z,101383.22
2023-07-16T15:39:22.677Z,101386.44
2023-07-16T15:41:49.249Z,101379.09
2023-07-16T15:44:17.836Z,101383.06
2023-07-16T15:46:45.063Z,101378.81
2023-07-16T15:49:12.447Z,101367.72
2023-07-16T15:51:41.980Z,101375.69
2023-07-16T15:54:08.746Z,101369.50
2023-07-16T15:56:35.305Z,101363.59
2023-07-16T15:59:01.885Z,101358.72
2023-07-16T16:01:28.814Z,101364.59
2023-07-16T16:03:55.483Z,101368.78
2023-07-16T16:06:22.168Z,101363.72
2023-07-16T16:08:48.689Z,101374.53
2023-07-16T16:11:15.821Z,101374.63
2023-07-16T16:13:42.683Z,101365.19
2023-07-16T16:16:09.185Z,101363.47
2023-07-16T16:18:35.892Z,101375.41
2023-07-16T16:21:02.614Z,101373.75
2023-07-16T16:23:30.190Z,101369.34
2023-07-16T16:25:56.902Z,101373.16
2023-07-16T16:28:24.021Z,101367.81
2023-07-16T16:30:50.734Z,101366.84
2023-07-16T16:33:17.322Z,101374.03
2023-07-16T16:35:44.226Z,101378.34
2023-07-16T16:38:11.520Z,101375.25
2023-07-16T16:40:39.431Z,101388.81
2023-07-16T16:43:06.582Z,101373.84
2023-07-16T16:45:34.921Z,101384.22
2023-07-16T16:48:04.981Z,101379.50
2023-07-16T16:50:33.140Z,101389.06
2023-07-16T16:53:02.661Z,101381.25
2023-07-16T16:55:30.289Z,101382.28
2023-07-16T16:57:56.946Z,101378.09
2023-07-16T17:00:25.931Z,101384.66
2023-07-16T17:02:52.657Z,101387.38
2023-07-16T17:05:20.861Z,101391.91
2023-07-16T17:07:47.585Z,101398.00
2023-07-16T17:10:14.079Z,101392.72
2023-07-16T17:12:42.402Z,101393.31
2023-07-16T17:15:10.928Z,101395.47
2023-07-16T17:17:37.495Z,101383.09
2023-07-16T17:20:07.106Z,101391.19
2023-07-16T17:22:33.714Z,101388.19
2023-07-16T17:25:00.267Z,101396.22
2023-07-16T17:27:26.736Z,101400.84
2023-07-16T17:29:54.028Z,101393.41
2023-07-16T17:32:20.936Z,101395.75
2023-07-16T17:34:47.347Z,101401.63
2023-07-16T17:37:16.721Z,101401.19
2023-07-16T17:39:45.870Z,101406.94
2023-07-16T17:42:12.812Z,101404.66
2023-07-16T17:44:39.424Z,101409.91
2023-07-16T17:47:08.899Z,101404.13
2023-07-16T17:49:35.875Z,101395.50
2023-07-16T17:52:02.846Z,101394.03
2023-07-16T17:54:29.519Z,101402.00
2023-07-16T17:56:56.198Z,101403.75
2023-07-16T17:59:26.073Z,101406.81
2023-07-16T18:01:52.921Z,101407.09
2023-07-16T18:04:24.995Z,101412.97
2023-07-16T18:06:51.765Z,101407.09
2023-07-16T18:09:18.536Z,101415.44
2023-07-16T18:11:46.035Z,101423.66
2023-07-16T18:14:14.994Z,101418.25
2023-07-16T18:16:43.025Z,101426.53
2023-07-16T18:19:14.980Z,101422.88
2023-07-16T18:21:47.811Z,101425.06
2023-07-16T18:24:17.649Z,101433.47
2023-07-16T18:26:44.171Z,101429.19
2023-07-16T18:29:11.468Z,101433.41
2023-07-16T18:31:38.375Z,101430.25
2023-07-16T18:34:05.951Z,101430.66
2023-07-16T18:36:32.603Z,101418.41
2023-07-16T18:38:59.217Z,101418.41
2023-07-16T18:41:25.697Z,101432.19
2023-07-16T18:43:52.385Z,101431.13
2023-07-16T18:46:19.559Z,101431.31
2023-07-16T18:48:46.418Z,101420.50
2023-07-16T18:51:12.981Z,101420.31
2023-07-16T18:56:06.177Z,101423.19
2023-07-16T18:58:32.761Z,101427.13
2023-07-16T19:00:59.550Z,101423.59
2023-07-16T19:03:26.262Z,101428.84
2023-07-16T19:05:53.479Z,101432.41
2023-07-16T19:08:20.212Z,101432.41
2023-07-16T19:10:46.740Z,101429.75
2023-07-16T19:13:13.403Z,101431.88
2023-07-16T19:15:39.989Z,101438.19
2023-07-16T19:18:06.657Z,101430.78
2023-07-16T19:20:33.355Z,101425.28
2023-07-16T19:22:59.989Z,101429.63
2023-07-16T19:25:27.802Z,101434.03
2023-07-16T19:27:56.135Z,101432.56
2023-07-16T19:30:22.664Z,101435.38
2023-07-16T19:32:49.228Z,101440.91
2023-07-16T19:35:16.046Z,101446.88
2023-07-16T19:37:42.524Z,101461.81
2023-07-16T19:40:13.246Z,101460.28
2023-07-16T19:42:40.657Z,101464.94
2023-07-16T19:45:08.090Z,101466.63
2023-07-16T19:47:35.252Z,101472.56
2023-07-16T19:50:06.012Z,101478.50
2023-07-16T19:52:33.375Z,101484.44
2023-07-16T19:55:02.859Z,101482.88
2023-07-16T19:57:35.404Z,101481.75
2023-07-16T20:00:05.783Z,101490.09
2023-07-16T20:02:35.276Z,101483.50
2023-07-16T20:05:02.891Z,101487.09
2023-07-16T20:07:33.472Z,101484.41
2023-07-16T20:10:01.147Z,101487.16
2023-07-16T20:12:28.031Z,101476.56
2023-07-16T20:14:56.873Z,101475.84
2023-07-16T20:17:23.492Z,101467.22
2023-07-16T20:19:51.694Z,101474.25
2023-07-16T20:22:19.795Z,101477.03
2023-07-16T20:24:46.277Z,101475.06
2023-07-16T20:27:13.167Z,101477.41
2023-07-16T20:29:39.666Z,101476.25
2023-07-16T20:32:06.789Z,101479.41
2023-07-16T20:34:33.462Z,101478.25
2023-07-16T20:37:00.064Z,101477.50
2023-07-16T20:39:28.010Z,101481.03
2023-07-16T20:41:54.551Z,101490.03
2023-07-16T20:44:21.270Z,101481.41
2023-07-16T20:46:48.036Z,101485.75
2023-07-16T20:49:15.013Z,101491.25
2023-07-16T20:51:41.817Z,101483.03
2023-07-16T20:54:09.459Z,101475.19
2023-07-16T20:56:36.329Z,101466.97
2023-07-16T20:59:03.284Z,101460.31
2023-07-16T21:01:31.883Z,101469.75
2023-07-16T21:03:58.541Z,101472.50
2023-07-16T21:06:25.130Z,101477.97
2023-07-16T21:08:51.625Z,101474.84
2023-07-16T21:11:18.639Z,101472.88
2023-07-16T21:13:45.627Z,101464.63
2023-07-16T21:16:15.490Z,101461.91
2023-07-16T21:18:42.102Z,101460.34
2023-07-16T21:21:08.540Z,101465.47
2023-07-16T21:23:34.964Z,101468.19
2023-07-16T21:26:01.797Z,101463.50
2023-07-16T21:28:28.328Z,101467.03
2023-07-16T21:30:54.962Z,101468.22
2023-07-16T21:33:21.503Z,101467.06
2023-07-16T21:35:48.168Z,101461.56
2023-07-16T21:38:14.612Z,101460.75
2023-07-16T21:40:41.099Z,101464.25
2023-07-16T21:43:10.949Z,101478.81
2023-07-16T21:45:39.713Z,101478.41
2023-07-16T21:48:07.346Z,101492.88
2023-07-16T21:50:34.061Z,101490.53
2023-07-16T21:53:01.567Z,101492.88
2023-07-16T21:55:28.197Z,101489.75
2023-07-16T21:57:54.784Z,101479.94
2023-07-16T22:00:23.678Z,101474.06
2023-07-16T22:02:50.527Z,101491.69
2023-07-16T22:05:17.344Z,101496.00
2023-07-16T22:07:44.232Z,101499.53
2023-07-16T22:10:11.680Z,101501.09
2023-07-16T22:12:40.286Z,101499.16
2023-07-16T22:15:07.958Z,101493.69
2023-07-16T22:17:34.504Z,101499.16
2023-07-16T22:20:05.177Z,101507.41
2023-07-16T22:22:32.001Z,101505.00
2023-07-16T22:24:58.729Z,101516.78
2023-07-16T22:27:25.895Z,101506.59
2023-07-16T22:29:53.804Z,101509.72
2023-07-16T22:32:20.449Z,101509.34
2023-07-16T22:34:47.520Z,101505.81
2023-07-16T22:37:14.259Z,101509.34
2023-07-16T22:39:40.801Z,101512.47
2023-07-16T22:42:07.712Z,101508.94
2023-07-16T22:44:34.289Z,101508.16
2023-07-16T22:47:00.809Z,101512.47
2023-07-16T22:49:29.662Z,101512.09
2023-07-16T22:51:57.384Z,101516.75
2023-07-16T22:54:23.903Z,101509.72
2023-07-16T22:56:50.397Z,101519.91
2023-07-16T22:59:16.848Z,101511.66
2023-07-16T23:01:43.373Z,101506.19
2023-07-16T23:04:10.288Z,101510.13
2023-07-16T23:06:37.142Z,101508.16
2023-07-16T23:09:04.056Z,101506.94
2023-07-16T23:11:30.570Z,101517.94
2023-07-16T23:13:57.166Z,101527.72
2023-07-16T23:16:23.766Z,101530.84
2023-07-16T23:18:50.263Z,101534.41
2023-07-16T23:21:17.051Z,101525.38
2023-07-16T23:23:44.048Z,101535.94
2023-07-16T23:26:11.091Z,101525.75
2023-07-16T23:28:37.563Z,101530.84
2023-07-16T23:31:04.279Z,101526.53
2023-07-16T23:33:32.366Z,101527.31
2023-07-16T23:35:59.051Z,101532.00
2023-07-16T23:38:25.576Z,101524.59
2023-07-16T23:40:52.207Z,101525.34
2023-07-16T23:43:18.902Z,101525.34
2023-07-16T23:45:45.390Z,101519.88
2023-07-16T23:48:11.953Z,101521.84
2023-07-16T23:50:39.993Z,101526.91
2023-07-16T23:53:07.119Z,101530.81
2023-07-16T23:55:33.612Z,101525.34
2023-07-16T23:58:00.244Z,101536.31
